1AR3 weather

CLOSED Bob Norman Airstrip
Des Arc, Arkansas, United States

Public forecast

Using degrees Fahrenheit for public forecast. Weather courtesy of forecast.io.

METAR (pilot weather report)

Closest report is Searcy Municipal Airport, 17.6 nm (32.7 km) NW. Retrieved 2019/07/21 09:56 UTC (13 minutes ago):

KSRC 210956Z AUTO 21003KT 5SM BR CLR 24/24 A2995 RMK AO2 SLP142 T02440244

TAF (pilot weather forecast)

Forecast is more than 6 hours old.

Closest forecast is Little Rock Air Force Base, 30.9 nm (57.2 km) W. Retrieved 2019/07/20 23:03 UTC (11 hours ago):

TAF TAF KLRF 202300Z 2023/2205 VRB06KT 9999 SCT045 QNH2989INS TX36/2023Z TN25/2111Z